sensor_id;sensor_type;location;lat;lon;timestamp;temperature;humidity
54124;DHT22;55741;53.252;5.788;2022-08-20T00:00:34;18.60;99.90
54124;DHT22;55741;53.252;5.788;2022-08-20T00:03:05;18.60;99.90
54124;DHT22;55741;53.252;5.788;2022-08-20T00:05:39;18.50;99.90
54124;DHT22;55741;53.252;5.788;2022-08-20T00:08:06;18.50;99.90
54124;DHT22;55741;53.252;5.788;2022-08-20T00:10:36;18.50;99.90
54124;DHT22;55741;53.252;5.788;2022-08-20T00:13:05;18.40;99.90
54124;DHT22;55741;53.252;5.788;2022-08-20T00:15:34;18.40;99.90
54124;DHT22;55741;53.252;5.788;2022-08-20T00:18:00;18.40;99.90
54124;DHT22;55741;53.252;5.788;2022-08-20T00:20:28;18.40;99.90
54124;DHT22;55741;53.252;5.788;2022-08-20T00:22:56;18.30;99.90
54124;DHT22;55741;53.252;5.788;2022-08-20T00:25:25;18.30;99.90
54124;DHT22;55741;53.252;5.788;2022-08-20T00:27:51;18.30;99.90
54124;DHT22;55741;53.252;5.788;2022-08-20T00:30:17;18.20;99.90
54124;DHT22;55741;53.252;5.788;2022-08-20T00:32:49;18.20;99.90
54124;DHT22;55741;53.252;5.788;2022-08-20T00:35:17;18.20;99.90
54124;DHT22;55741;53.252;5.788;2022-08-20T00:37:43;18.10;99.90
54124;DHT22;55741;53.252;5.788;2022-08-20T00:40:10;18.10;99.90
54124;DHT22;55741;53.252;5.788;2022-08-20T00:42:46;18.10;99.90
54124;DHT22;55741;53.252;5.788;2022-08-20T00:45:14;18.10;99.90
54124;DHT22;55741;53.252;5.788;2022-08-20T00:47:40;18.10;99.90
54124;DHT22;55741;53.252;5.788;2022-08-20T00:50:17;18.00;99.90
54124;DHT22;55741;53.252;5.788;2022-08-20T00:52:47;18.00;99.90
54124;DHT22;55741;53.252;5.788;2022-08-20T00:55:15;18.00;99.90
54124;DHT22;55741;53.252;5.788;2022-08-20T00:57:45;17.90;99.90
54124;DHT22;55741;53.252;5.788;2022-08-20T01:00:16;17.90;99.90
54124;DHT22;55741;53.252;5.788;2022-08-20T01:02:44;17.90;99.90
54124;DHT22;55741;53.252;5.788;2022-08-20T01:05:11;17.90;99.90
54124;DHT22;55741;53.252;5.788;2022-08-20T01:07:37;17.80;99.90
54124;DHT22;55741;53.252;5.788;2022-08-20T01:10:17;17.80;99.90
54124;DHT22;55741;53.252;5.788;2022-08-20T01:12:45;17.80;99.90
54124;DHT22;55741;53.252;5.788;2022-08-20T01:15:15;17.70;99.90
54124;DHT22;55741;53.252;5.788;2022-08-20T01:17:48;17.70;99.90
54124;DHT22;55741;53.252;5.788;2022-08-20T01:20:26;17.70;99.90
54124;DHT22;55741;53.252;5.788;2022-08-20T01:23:05;17.60;99.90
54124;DHT22;55741;53.252;5.788;2022-08-20T01:26:15;17.60;99.90
54124;DHT22;55741;53.252;5.788;2022-08-20T01:28:52;17.60;99.90
54124;DHT22;55741;53.252;5.788;2022-08-20T01:31:25;17.60;99.90
54124;DHT22;55741;53.252;5.788;2022-08-20T01:33:52;17.60;99.90
54124;DHT22;55741;53.252;5.788;2022-08-20T01:36:47;17.60;99.90
54124;DHT22;55741;53.252;5.788;2022-08-20T01:39:16;17.60;99.90
54124;DHT22;55741;53.252;5.788;2022-08-20T01:42:11;17.60;99.90
54124;DHT22;55741;53.252;5.788;2022-08-20T01:44:42;17.70;99.90
54124;DHT22;55741;53.252;5.788;2022-08-20T01:47:12;17.70;99.90
54124;DHT22;55741;53.252;5.788;2022-08-20T01:49:43;17.70;99.90
54124;DHT22;55741;53.252;5.788;2022-08-20T01:52:14;17.70;99.90
54124;DHT22;55741;53.252;5.788;2022-08-20T01:54:42;17.70;99.90
54124;DHT22;55741;53.252;5.788;2022-08-20T01:57:14;17.70;99.90
54124;DHT22;55741;53.252;5.788;2022-08-20T01:59:41;17.70;99.90
54124;DHT22;55741;53.252;5.788;2022-08-20T02:02:09;17.70;99.90
54124;DHT22;55741;53.252;5.788;2022-08-20T02:04:36;17.70;99.90
54124;DHT22;55741;53.252;5.788;2022-08-20T02:07:04;17.60;99.90
54124;DHT22;55741;53.252;5.788;2022-08-20T02:09:37;17.70;99.90
54124;DHT22;55741;53.252;5.788;2022-08-20T02:12:06;17.70;99.90
54124;DHT22;55741;53.252;5.788;2022-08-20T02:14:33;17.60;99.90
54124;DHT22;55741;53.252;5.788;2022-08-20T02:16:59;17.60;99.90
54124;DHT22;55741;53.252;5.788;2022-08-20T02:19:32;17.60;99.90
54124;DHT22;55741;53.252;5.788;2022-08-20T02:22:19;17.60;99.90
54124;DHT22;55741;53.252;5.788;2022-08-20T02:24:45;17.60;99.90
54124;DHT22;55741;53.252;5.788;2022-08-20T02:27:13;17.60;99.90
54124;DHT22;55741;53.252;5.788;2022-08-20T02:29:39;17.50;99.90
54124;DHT22;55741;53.252;5.788;2022-08-20T02:32:06;17.50;99.90
54124;DHT22;55741;53.252;5.788;2022-08-20T02:34:34;17.50;99.90
54124;DHT22;55741;53.252;5.788;2022-08-20T02:37:00;17.50;99.90
54124;DHT22;55741;53.252;5.788;2022-08-20T02:39:27;17.40;99.90
54124;DHT22;55741;53.252;5.788;2022-08-20T02:41:53;17.40;99.90
54124;DHT22;55741;53.252;5.788;2022-08-20T02:44:19;17.40;99.90
54124;DHT22;55741;53.252;5.788;2022-08-20T02:46:46;17.40;99.90
54124;DHT22;55741;53.252;5.788;2022-08-20T02:49:13;17.30;99.90
54124;DHT22;55741;53.252;5.788;2022-08-20T02:51:39;17.30;99.90
54124;DHT22;55741;53.252;5.788;2022-08-20T02:54:05;17.30;99.90
54124;DHT22;55741;53.252;5.788;2022-08-20T02:56:31;17.30;99.90
54124;DHT22;55741;53.252;5.788;2022-08-20T02:58:56;17.20;99.90
54124;DHT22;55741;53.252;5.788;2022-08-20T03:01:22;17.20;99.90
54124;DHT22;55741;53.252;5.788;2022-08-20T03:03:48;17.20;99.90
54124;DHT22;55741;53.252;5.788;2022-08-20T03:06:14;17.20;99.90
54124;DHT22;55741;53.252;5.788;2022-08-20T03:08:41;17.10;99.90
54124;DHT22;55741;53.252;5.788;2022-08-20T03:11:07;17.10;99.90
54124;DHT22;55741;53.252;5.788;2022-08-20T03:13:34;17.10;99.90
54124;DHT22;55741;53.252;5.788;2022-08-20T03:16:02;17.00;99.90
54124;DHT22;55741;53.252;5.788;2022-08-20T03:18:35;16.90;99.90
54124;DHT22;55741;53.252;5.788;2022-08-20T03:21:03;16.90;99.90
54124;DHT22;55741;53.252;5.788;2022-08-20T03:23:29;16.80;99.90
54124;DHT22;55741;53.252;5.788;2022-08-20T03:25:55;16.80;99.90
54124;DHT22;55741;53.252;5.788;2022-08-20T03:28:23;16.70;99.90
54124;DHT22;55741;53.252;5.788;2022-08-20T03:30:49;16.60;99.90
54124;DHT22;55741;53.252;5.788;2022-08-20T03:33:16;16.60;99.90
54124;DHT22;55741;53.252;5.788;2022-08-20T03:35:45;16.50;99.90
54124;DHT22;55741;53.252;5.788;2022-08-20T03:38:13;16.50;99.90
54124;DHT22;55741;53.252;5.788;2022-08-20T03:40:40;16.40;99.90
54124;DHT22;55741;53.252;5.788;2022-08-20T03:43:07;16.30;99.90
54124;DHT22;55741;53.252;5.788;2022-08-20T03:45:34;16.30;99.90
54124;DHT22;55741;53.252;5.788;2022-08-20T03:48:02;16.20;99.90
54124;DHT22;55741;53.252;5.788;2022-08-20T03:50:30;16.20;99.90
54124;DHT22;55741;53.252;5.788;2022-08-20T03:52:57;16.10;99.90
54124;DHT22;55741;53.252;5.788;2022-08-20T03:55:24;16.10;99.90
54124;DHT22;55741;53.252;5.788;2022-08-20T03:57:53;16.00;99.90
54124;DHT22;55741;53.252;5.788;2022-08-20T04:00:23;16.00;99.90
54124;DHT22;55741;53.252;5.788;2022-08-20T04:02:49;16.00;99.90
54124;DHT22;55741;53.252;5.788;2022-08-20T04:05:15;15.90;99.90
54124;DHT22;55741;53.252;5.788;2022-08-20T04:07:41;15.90;99.90
54124;DHT22;55741;53.252;5.788;2022-08-20T04:10:10;15.80;99.90
54124;DHT22;55741;53.252;5.788;2022-08-20T04:12:36;15.80;99.90
54124;DHT22;55741;53.252;5.788;2022-08-20T04:15:13;15.80;99.90
54124;DHT22;55741;53.252;5.788;2022-08-20T04:17:42;15.80;99.90
54124;DHT22;55741;53.252;5.788;2022-08-20T04:20:10;15.70;99.90
54124;DHT22;55741;53.252;5.788;2022-08-20T04:22:37;15.70;99.90
54124;DHT22;55741;53.252;5.788;2022-08-20T04:25:06;15.70;99.90
54124;DHT22;55741;53.252;5.788;2022-08-20T04:27:36;15.60;99.90
54124;DHT22;55741;53.252;5.788;2022-08-20T04:30:09;15.60;99.90
54124;DHT22;55741;53.252;5.788;2022-08-20T04:32:39;15.60;99.90
54124;DHT22;55741;53.252;5.788;2022-08-20T04:35:08;15.50;99.90
54124;DHT22;55741;53.252;5.788;2022-08-20T04:37:37;15.50;99.90
54124;DHT22;55741;53.252;5.788;2022-08-20T04:40:09;15.50;99.90
54124;DHT22;55741;53.252;5.788;2022-08-20T04:42:56;15.40;99.90
54124;DHT22;55741;53.252;5.788;2022-08-20T04:45:23;15.40;99.90
54124;DHT22;55741;53.252;5.788;2022-08-20T04:47:50;15.40;99.90
54124;DHT22;55741;53.252;5.788;2022-08-20T04:50:18;15.40;99.90
54124;DHT22;55741;53.252;5.788;2022-08-20T04:52:44;15.40;99.90
54124;DHT22;55741;53.252;5.788;2022-08-20T04:55:12;15.30;99.90
54124;DHT22;55741;53.252;5.788;2022-08-20T04:57:38;15.30;99.90
54124;DHT22;55741;53.252;5.788;2022-08-20T05:00:17;15.30;99.90
54124;DHT22;55741;53.252;5.788;2022-08-20T05:02:43;15.30;99.90
54124;DHT22;55741;53.252;5.788;2022-08-20T05:05:09;15.30;99.90
54124;DHT22;55741;53.252;5.788;2022-08-20T05:07:41;15.30;99.90
54124;DHT22;55741;53.252;5.788;2022-08-20T05:10:12;15.30;99.90
54124;DHT22;55741;53.252;5.788;2022-08-20T05:12:40;15.30;99.90
54124;DHT22;55741;53.252;5.788;2022-08-20T05:15:07;15.20;99.90
54124;DHT22;55741;53.252;5.788;2022-08-20T05:17:37;15.20;99.90
54124;DHT22;55741;53.252;5.788;2022-08-20T05:20:04;15.30;99.90
54124;DHT22;55741;53.252;5.788;2022-08-20T05:22:31;15.30;99.90
54124;DHT22;55741;53.252;5.788;2022-08-20T05:24:57;15.20;99.90
54124;DHT22;55741;53.252;5.788;2022-08-20T05:27:24;15.30;99.90
54124;DHT22;55741;53.252;5.788;2022-08-20T05:29:53;15.30;99.90
54124;DHT22;55741;53.252;5.788;2022-08-20T05:32:21;15.30;99.90
54124;DHT22;55741;53.252;5.788;2022-08-20T05:34:47;15.30;99.90
54124;DHT22;55741;53.252;5.788;2022-08-20T05:37:13;15.30;99.90
54124;DHT22;55741;53.252;5.788;2022-08-20T05:39:39;15.40;99.90
54124;DHT22;55741;53.252;5.788;2022-08-20T05:42:05;15.40;99.90
54124;DHT22;55741;53.252;5.788;2022-08-20T05:44:31;15.50;99.90
54124;DHT22;55741;53.252;5.788;2022-08-20T05:46:57;15.50;99.90
54124;DHT22;55741;53.252;5.788;2022-08-20T05:49:23;15.60;99.90
54124;DHT22;55741;53.252;5.788;2022-08-20T05:51:49;15.60;99.90
54124;DHT22;55741;53.252;5.788;2022-08-20T05:54:15;15.60;99.90
54124;DHT22;55741;53.252;5.788;2022-08-20T05:56:41;15.70;99.90
54124;DHT22;55741;53.252;5.788;2022-08-20T05:59:08;15.70;99.90
54124;DHT22;55741;53.252;5.788;2022-08-20T06:01:36;15.80;99.90
54124;DHT22;55741;53.252;5.788;2022-08-20T06:04:03;15.90;99.90
54124;DHT22;55741;53.252;5.788;2022-08-20T06:06:49;15.90;99.90
54124;DHT22;55741;53.252;5.788;2022-08-20T06:09:19;16.00;99.90
54124;DHT22;55741;53.252;5.788;2022-08-20T06:11:45;16.00;99.90
54124;DHT22;55741;53.252;5.788;2022-08-20T06:14:11;16.10;99.90
54124;DHT22;55741;53.252;5.788;2022-08-20T06:16:37;16.10;99.90
54124;DHT22;55741;53.252;5.788;2022-08-20T06:19:04;16.10;99.90
54124;DHT22;55741;53.252;5.788;2022-08-20T06:21:30;16.10;99.90
54124;DHT22;55741;53.252;5.788;2022-08-20T06:23:56;16.20;99.90
54124;DHT22;55741;53.252;5.788;2022-08-20T06:26:22;16.20;99.90
54124;DHT22;55741;53.252;5.788;2022-08-20T06:28:48;16.20;99.90
54124;DHT22;55741;53.252;5.788;2022-08-20T06:31:14;16.30;99.90
54124;DHT22;55741;53.252;5.788;2022-08-20T06:33:41;16.30;99.90
54124;DHT22;55741;53.252;5.788;2022-08-20T06:36:07;16.40;99.90
54124;DHT22;55741;53.252;5.788;2022-08-20T06:38:33;16.40;99.90
54124;DHT22;55741;53.252;5.788;2022-08-20T06:40:59;16.50;99.90
54124;DHT22;55741;53.252;5.788;2022-08-20T06:43:25;16.60;99.90
54124;DHT22;55741;53.252;5.788;2022-08-20T06:45:51;16.70;99.90
54124;DHT22;55741;53.252;5.788;2022-08-20T06:48:22;16.90;99.90
54124;DHT22;55741;53.252;5.788;2022-08-20T06:50:48;17.00;99.90
54124;DHT22;55741;53.252;5.788;2022-08-20T06:53:16;17.20;99.90
54124;DHT22;55741;53.252;5.788;2022-08-20T06:55:49;17.40;99.90
54124;DHT22;55741;53.252;5.788;2022-08-20T06:58:16;17.70;99.90
54124;DHT22;55741;53.252;5.788;2022-08-20T07:00:43;17.90;99.90
54124;DHT22;55741;53.252;5.788;2022-08-20T07:03:09;18.10;99.90
54124;DHT22;55741;53.252;5.788;2022-08-20T07:05:38;18.50;99.90
54124;DHT22;55741;53.252;5.788;2022-08-20T07:08:11;18.70;99.90
54124;DHT22;55741;53.252;5.788;2022-08-20T07:10:39;19.10;99.90
54124;DHT22;55741;53.252;5.788;2022-08-20T07:13:06;19.40;99.90
54124;DHT22;55741;53.252;5.788;2022-08-20T07:15:32;19.70;99.90
54124;DHT22;55741;53.252;5.788;2022-08-20T07:18:00;19.90;99.90
54124;DHT22;55741;53.252;5.788;2022-08-20T07:20:27;20.10;99.90
54124;DHT22;55741;53.252;5.788;2022-08-20T07:22:53;20.40;99.90
54124;DHT22;55741;53.252;5.788;2022-08-20T07:25:20;20.60;99.90
54124;DHT22;55741;53.252;5.788;2022-08-20T07:27:47;20.80;99.90
54124;DHT22;55741;53.252;5.788;2022-08-20T07:30:24;20.90;99.90
54124;DHT22;55741;53.252;5.788;2022-08-20T07:33:09;21.00;99.90
54124;DHT22;55741;53.252;5.788;2022-08-20T07:35:40;21.20;99.90
54124;DHT22;55741;53.252;5.788;2022-08-20T07:38:06;21.40;99.90
54124;DHT22;55741;53.252;5.788;2022-08-20T07:40:34;21.50;99.90
54124;DHT22;55741;53.252;5.788;2022-08-20T07:43:00;21.80;99.90
54124;DHT22;55741;53.252;5.788;2022-08-20T07:45:29;21.90;99.90
54124;DHT22;55741;53.252;5.788;2022-08-20T07:48:05;22.00;99.90
54124;DHT22;55741;53.252;5.788;2022-08-20T07:50:31;22.10;99.90
54124;DHT22;55741;53.252;5.788;2022-08-20T07:52:57;22.20;99.90
54124;DHT22;55741;53.252;5.788;2022-08-20T07:55:25;22.40;99.90
54124;DHT22;55741;53.252;5.788;2022-08-20T07:57:51;22.60;99.90
54124;DHT22;55741;53.252;5.788;2022-08-20T08:00:19;22.60;99.90
54124;DHT22;55741;53.252;5.788;2022-08-20T08:02:45;22.80;99.90
54124;DHT22;55741;53.252;5.788;2022-08-20T08:05:11;22.90;99.90
54124;DHT22;55741;53.252;5.788;2022-08-20T08:07:37;22.80;99.90
54124;DHT22;55741;53.252;5.788;2022-08-20T08:10:06;22.80;99.90
54124;DHT22;55741;53.252;5.788;2022-08-20T08:12:42;22.80;99.90
54124;DHT22;55741;53.252;5.788;2022-08-20T08:15:12;22.90;99.90
54124;DHT22;55741;53.252;5.788;2022-08-20T08:17:41;22.90;99.90
54124;DHT22;55741;53.252;5.788;2022-08-20T08:20:08;23.00;99.90
54124;DHT22;55741;53.252;5.788;2022-08-20T08:22:37;23.00;99.90
54124;DHT22;55741;53.252;5.788;2022-08-20T08:25:04;23.10;99.90
54124;DHT22;55741;53.252;5.788;2022-08-20T08:27:30;23.30;99.40
54124;DHT22;55741;53.252;5.788;2022-08-20T08:30:00;23.40;98.80
54124;DHT22;55741;53.252;5.788;2022-08-20T08:32:28;23.60;98.60
54124;DHT22;55741;53.252;5.788;2022-08-20T08:34:56;23.60;97.90
54124;DHT22;55741;53.252;5.788;2022-08-20T08:37:24;23.70;97.80
54124;DHT22;55741;53.252;5.788;2022-08-20T08:39:49;23.70;97.70
54124;DHT22;55741;53.252;5.788;2022-08-20T08:42:38;23.80;97.50
54124;DHT22;55741;53.252;5.788;2022-08-20T08:45:08;23.90;96.70
54124;DHT22;55741;53.252;5.788;2022-08-20T08:47:36;23.90;96.80
54124;DHT22;55741;53.252;5.788;2022-08-20T08:50:05;23.90;96.40
54124;DHT22;55741;53.252;5.788;2022-08-20T08:52:36;24.00;96.00
54124;DHT22;55741;53.252;5.788;2022-08-20T08:55:10;23.90;95.90
54124;DHT22;55741;53.252;5.788;2022-08-20T08:57:40;23.90;96.10
54124;DHT22;55741;53.252;5.788;2022-08-20T09:00:12;23.90;96.70
54124;DHT22;55741;53.252;5.788;2022-08-20T09:03:00;24.00;96.60
54124;DHT22;55741;53.252;5.788;2022-08-20T09:05:39;24.10;96.00
54124;DHT22;55741;53.252;5.788;2022-08-20T09:08:09;24.20;95.50
54124;DHT22;55741;53.252;5.788;2022-08-20T09:10:37;24.20;95.30
54124;DHT22;55741;53.252;5.788;2022-08-20T09:13:05;24.30;95.60
54124;DHT22;55741;53.252;5.788;2022-08-20T09:15:31;24.40;95.90
54124;DHT22;55741;53.252;5.788;2022-08-20T09:17:57;24.50;94.80
54124;DHT22;55741;53.252;5.788;2022-08-20T09:20:23;24.30;94.10
54124;DHT22;55741;53.252;5.788;2022-08-20T09:22:49;24.10;93.20
54124;DHT22;55741;53.252;5.788;2022-08-20T09:25:15;23.90;93.80
54124;DHT22;55741;53.252;5.788;2022-08-20T09:27:41;23.80;94.40
54124;DHT22;55741;53.252;5.788;2022-08-20T09:30:08;23.80;94.40
54124;DHT22;55741;53.252;5.788;2022-08-20T09:32:34;23.80;94.00
54124;DHT22;55741;53.252;5.788;2022-08-20T09:35:00;23.70;94.00
54124;DHT22;55741;53.252;5.788;2022-08-20T09:37:29;23.70;94.60
54124;DHT22;55741;53.252;5.788;2022-08-20T09:39:55;23.80;94.90
54124;DHT22;55741;53.252;5.788;2022-08-20T09:42:30;23.90;94.80
54124;DHT22;55741;53.252;5.788;2022-08-20T09:44:56;24.10;93.40
54124;DHT22;55741;53.252;5.788;2022-08-20T09:47:23;24.20;93.10
54124;DHT22;55741;53.252;5.788;2022-08-20T09:49:49;24.30;92.30
54124;DHT22;55741;53.252;5.788;2022-08-20T09:52:24;24.40;92.50
54124;DHT22;55741;53.252;5.788;2022-08-20T09:54:55;24.40;92.20
54124;DHT22;55741;53.252;5.788;2022-08-20T09:57:21;24.30;92.00
54124;DHT22;55741;53.252;5.788;2022-08-20T09:59:53;24.30;92.10
54124;DHT22;55741;53.252;5.788;2022-08-20T10:02:19;24.30;91.90
54124;DHT22;55741;53.252;5.788;2022-08-20T10:04:45;24.40;92.40
54124;DHT22;55741;53.252;5.788;2022-08-20T10:07:11;24.50;91.40
54124;DHT22;55741;53.252;5.788;2022-08-20T10:09:37;24.50;91.10
54124;DHT22;55741;53.252;5.788;2022-08-20T10:12:03;24.50;91.00
54124;DHT22;55741;53.252;5.788;2022-08-20T10:14:29;24.50;91.40
54124;DHT22;55741;53.252;5.788;2022-08-20T10:16:56;24.60;91.30
54124;DHT22;55741;53.252;5.788;2022-08-20T10:19:23;24.80;90.70
54124;DHT22;55741;53.252;5.788;2022-08-20T10:21:50;24.80;90.50
54124;DHT22;55741;53.252;5.788;2022-08-20T10:24:17;24.90;90.10
54124;DHT22;55741;53.252;5.788;2022-08-20T10:26:43;24.90;90.40
54124;DHT22;55741;53.252;5.788;2022-08-20T10:29:09;25.00;90.50
54124;DHT22;55741;53.252;5.788;2022-08-20T10:31:35;25.00;88.20
54124;DHT22;55741;53.252;5.788;2022-08-20T10:34:01;25.10;89.20
54124;DHT22;55741;53.252;5.788;2022-08-20T10:36:26;25.10;88.80
54124;DHT22;55741;53.252;5.788;2022-08-20T10:38:54;25.10;88.30
54124;DHT22;55741;53.252;5.788;2022-08-20T10:41:20;25.10;88.90
54124;DHT22;55741;53.252;5.788;2022-08-20T10:43:46;25.20;89.90
54124;DHT22;55741;53.252;5.788;2022-08-20T10:46:13;25.30;89.80
54124;DHT22;55741;53.252;5.788;2022-08-20T10:48:39;25.30;88.90
54124;DHT22;55741;53.252;5.788;2022-08-20T10:51:05;25.40;86.70
54124;DHT22;55741;53.252;5.788;2022-08-20T10:53:31;25.40;87.00
54124;DHT22;55741;53.252;5.788;2022-08-20T10:55:57;25.40;87.40
54124;DHT22;55741;53.252;5.788;2022-08-20T10:58:24;25.40;86.70
54124;DHT22;55741;53.252;5.788;2022-08-20T11:00:51;25.30;88.20
54124;DHT22;55741;53.252;5.788;2022-08-20T11:03:17;25.30;88.00
54124;DHT22;55741;53.252;5.788;2022-08-20T11:05:43;25.40;88.00
54124;DHT22;55741;53.252;5.788;2022-08-20T11:08:09;25.40;86.70
54124;DHT22;55741;53.252;5.788;2022-08-20T11:10:36;25.50;85.90
54124;DHT22;55741;53.252;5.788;2022-08-20T11:13:04;25.60;85.10
54124;DHT22;55741;53.252;5.788;2022-08-20T11:15:39;25.60;85.40
54124;DHT22;55741;53.252;5.788;2022-08-20T11:18:06;25.70;84.30
54124;DHT22;55741;53.252;5.788;2022-08-20T11:20:33;25.70;85.20
54124;DHT22;55741;53.252;5.788;2022-08-20T11:23:00;25.70;83.80
54124;DHT22;55741;53.252;5.788;2022-08-20T11:25:27;25.70;84.50
54124;DHT22;55741;53.252;5.788;2022-08-20T11:27:55;25.80;85.00
54124;DHT22;55741;53.252;5.788;2022-08-20T11:30:27;25.80;83.50
54124;DHT22;55741;53.252;5.788;2022-08-20T11:32:53;25.80;83.80
54124;DHT22;55741;53.252;5.788;2022-08-20T11:35:19;25.90;84.30
54124;DHT22;55741;53.252;5.788;2022-08-20T11:37:49;26.00;83.90
54124;DHT22;55741;53.252;5.788;2022-08-20T11:40:17;26.20;83.10
54124;DHT22;55741;53.252;5.788;2022-08-20T11:42:43;26.30;82.70
54124;DHT22;55741;53.252;5.788;2022-08-20T11:45:09;26.40;84.10
54124;DHT22;55741;53.252;5.788;2022-08-20T11:47:35;26.60;83.60
54124;DHT22;55741;53.252;5.788;2022-08-20T11:50:05;26.70;83.20
54124;DHT22;55741;53.252;5.788;2022-08-20T11:52:32;26.60;82.20
54124;DHT22;55741;53.252;5.788;2022-08-20T11:54:58;26.70;81.90
54124;DHT22;55741;53.252;5.788;2022-08-20T11:57:30;26.80;80.90
54124;DHT22;55741;53.252;5.788;2022-08-20T11:59:57;26.70;79.10
54124;DHT22;55741;53.252;5.788;2022-08-20T12:02:24;26.70;80.50
54124;DHT22;55741;53.252;5.788;2022-08-20T12:04:50;26.70;79.50
54124;DHT22;55741;53.252;5.788;2022-08-20T12:07:20;26.70;80.90
54124;DHT22;55741;53.252;5.788;2022-08-20T12:09:47;26.50;80.90
54124;DHT22;55741;53.252;5.788;2022-08-20T12:12:13;26.30;79.20
54124;DHT22;55741;53.252;5.788;2022-08-20T12:14:39;26.10;80.30
54124;DHT22;55741;53.252;5.788;2022-08-20T12:17:13;25.90;80.70
54124;DHT22;55741;53.252;5.788;2022-08-20T12:19:40;25.60;81.30
54124;DHT22;55741;53.252;5.788;2022-08-20T12:22:07;25.30;81.40
54124;DHT22;55741;53.252;5.788;2022-08-20T12:24:34;25.10;80.70
54124;DHT22;55741;53.252;5.788;2022-08-20T12:27:16;25.00;82.20
54124;DHT22;55741;53.252;5.788;2022-08-20T12:29:44;25.00;82.10
54124;DHT22;55741;53.252;5.788;2022-08-20T12:32:11;24.90;81.50
54124;DHT22;55741;53.252;5.788;2022-08-20T12:34:38;24.90;81.00
54124;DHT22;55741;53.252;5.788;2022-08-20T12:37:10;24.90;81.50
54124;DHT22;55741;53.252;5.788;2022-08-20T12:39:38;24.90;79.90
54124;DHT22;55741;53.252;5.788;2022-08-20T12:42:06;25.00;81.30
54124;DHT22;55741;53.252;5.788;2022-08-20T12:44:33;25.00;79.70
54124;DHT22;55741;53.252;5.788;2022-08-20T12:47:16;25.00;79.20
54124;DHT22;55741;53.252;5.788;2022-08-20T12:49:46;24.90;81.20
54124;DHT22;55741;53.252;5.788;2022-08-20T12:52:13;24.80;81.70
54124;DHT22;55741;53.252;5.788;2022-08-20T12:54:39;24.70;82.40
54124;DHT22;55741;53.252;5.788;2022-08-20T12:57:05;24.70;81.20
54124;DHT22;55741;53.252;5.788;2022-08-20T12:59:31;24.90;80.80
54124;DHT22;55741;53.252;5.788;2022-08-20T13:01:57;25.00;81.20
54124;DHT22;55741;53.252;5.788;2022-08-20T13:04:23;25.10;81.00
54124;DHT22;55741;53.252;5.788;2022-08-20T13:06:49;25.00;80.50
54124;DHT22;55741;53.252;5.788;2022-08-20T13:09:16;24.90;81.00
54124;DHT22;55741;53.252;5.788;2022-08-20T13:11:42;25.00;82.30
54124;DHT22;55741;53.252;5.788;2022-08-20T13:14:08;25.20;82.50
54124;DHT22;55741;53.252;5.788;2022-08-20T13:16:34;25.40;81.50
54124;DHT22;55741;53.252;5.788;2022-08-20T13:19:00;25.70;78.90
54124;DHT22;55741;53.252;5.788;2022-08-20T13:21:26;25.80;79.10
54124;DHT22;55741;53.252;5.788;2022-08-20T13:23:52;26.00;78.90
54124;DHT22;55741;53.252;5.788;2022-08-20T13:26:18;26.20;79.90
54124;DHT22;55741;53.252;5.788;2022-08-20T13:28:44;26.30;80.80
54124;DHT22;55741;53.252;5.788;2022-08-20T13:31:10;26.30;79.80
54124;DHT22;55741;53.252;5.788;2022-08-20T13:33:35;26.20;80.10
54124;DHT22;55741;53.252;5.788;2022-08-20T13:36:01;26.00;81.00
54124;DHT22;55741;53.252;5.788;2022-08-20T13:38:27;25.90;82.00
54124;DHT22;55741;53.252;5.788;2022-08-20T13:40:53;25.90;80.90
54124;DHT22;55741;53.252;5.788;2022-08-20T13:43:20;25.90;80.30
54124;DHT22;55741;53.252;5.788;2022-08-20T13:45:46;25.60;82.30
54124;DHT22;55741;53.252;5.788;2022-08-20T13:48:12;25.60;82.90
54124;DHT22;55741;53.252;5.788;2022-08-20T13:50:38;25.70;82.60
54124;DHT22;55741;53.252;5.788;2022-08-20T13:53:03;25.50;83.30
54124;DHT22;55741;53.252;5.788;2022-08-20T13:55:29;25.50;83.90
54124;DHT22;55741;53.252;5.788;2022-08-20T13:57:56;25.60;83.50
54124;DHT22;55741;53.252;5.788;2022-08-20T14:00:27;25.40;83.90
54124;DHT22;55741;53.252;5.788;2022-08-20T14:02:54;25.30;84.90
54124;DHT22;55741;53.252;5.788;2022-08-20T14:05:20;25.20;86.20
54124;DHT22;55741;53.252;5.788;2022-08-20T14:07:47;25.20;87.20
54124;DHT22;55741;53.252;5.788;2022-08-20T14:10:18;25.30;86.80
54124;DHT22;55741;53.252;5.788;2022-08-20T14:12:44;25.00;86.80
54124;DHT22;55741;53.252;5.788;2022-08-20T14:15:10;24.90;87.20
54124;DHT22;55741;53.252;5.788;2022-08-20T14:17:39;24.90;87.00
54124;DHT22;55741;53.252;5.788;2022-08-20T14:20:11;25.00;86.30
54124;DHT22;55741;53.252;5.788;2022-08-20T14:22:37;24.90;86.50
54124;DHT22;55741;53.252;5.788;2022-08-20T14:25:08;24.80;87.30
54124;DHT22;55741;53.252;5.788;2022-08-20T14:27:35;24.70;86.60
54124;DHT22;55741;53.252;5.788;2022-08-20T14:30:02;24.60;87.40
54124;DHT22;55741;53.252;5.788;2022-08-20T14:32:29;24.60;88.00
54124;DHT22;55741;53.252;5.788;2022-08-20T14:34:54;24.70;88.10
54124;DHT22;55741;53.252;5.788;2022-08-20T14:37:29;24.70;87.00
54124;DHT22;55741;53.252;5.788;2022-08-20T14:39:58;24.90;85.60
54124;DHT22;55741;53.252;5.788;2022-08-20T14:42:26;25.00;84.50
54124;DHT22;55741;53.252;5.788;2022-08-20T14:44:55;24.80;84.90
54124;DHT22;55741;53.252;5.788;2022-08-20T14:47:45;24.60;85.20
54124;DHT22;55741;53.252;5.788;2022-08-20T14:50:16;24.70;86.10
54124;DHT22;55741;53.252;5.788;2022-08-20T14:52:42;24.80;85.70
54124;DHT22;55741;53.252;5.788;2022-08-20T14:55:12;24.90;84.60
54124;DHT22;55741;53.252;5.788;2022-08-20T14:57:39;25.00;85.00
54124;DHT22;55741;53.252;5.788;2022-08-20T15:00:08;25.00;85.60
54124;DHT22;55741;53.252;5.788;2022-08-20T15:02:35;25.10;86.30
54124;DHT22;55741;53.252;5.788;2022-08-20T15:05:01;25.10;86.50
54124;DHT22;55741;53.252;5.788;2022-08-20T15:07:30;25.10;87.40
54124;DHT22;55741;53.252;5.788;2022-08-20T15:09:57;25.00;87.40
54124;DHT22;55741;53.252;5.788;2022-08-20T15:12:25;24.90;87.50
54124;DHT22;55741;53.252;5.788;2022-08-20T15:14:51;24.90;88.10
54124;DHT22;55741;53.252;5.788;2022-08-20T15:17:22;24.90;89.00
54124;DHT22;55741;53.252;5.788;2022-08-20T15:19:49;25.00;89.40
54124;DHT22;55741;53.252;5.788;2022-08-20T15:22:15;25.00;89.20
54124;DHT22;55741;53.252;5.788;2022-08-20T15:24:41;24.90;89.70
54124;DHT22;55741;53.252;5.788;2022-08-20T15:27:25;24.80;90.10
54124;DHT22;55741;53.252;5.788;2022-08-20T15:29:52;24.80;90.50
54124;DHT22;55741;53.252;5.788;2022-08-20T15:32:19;24.70;90.50
54124;DHT22;55741;53.252;5.788;2022-08-20T15:34:46;24.60;91.20
54124;DHT22;55741;53.252;5.788;2022-08-20T15:37:12;24.50;91.80